YOSEMITE NATIONAL PARK, CA

7:09 AM PDT on August 22, 2014 (GMT -0700)
CRANE FLAT LOOKOUT | Change Station
CLOSE
Current Station
Personal Weather Station
Location: Yosemite National Park, CA
Elevation: 6227 ft
Nearby Weather Stations

Elev 6227 ft 37.75 °N, 119.80 °W | Updated 23 minutes ago

Clear
Clear
56.0 °F
Feels Like 56.0 °F
N
6.0
Wind Variable Wind from South

Today
High -- | Low -- °F
--% Chance of Precip.
Yesterday
High -- | Low -- °F
Precip. -- in
6:20 AM 7:42 PM
Waning Crescent, 8% visible
Pressure 30.21 in
Visibility 10.0 miles
Clouds Clear
Dew Point 37 °F
Humidity 48%
Rainfall -999.00 in
Snow Depth Not available.
UV 0 out of 12
Pollen 9.00 out of 12
Air Quality Not available.
Flu Activity Not available.
METAR KMMH 221355Z AUTO 00000KT 10SM CLR 06/01 A3021 RMK AO1

More Conditions Fewer Conditions

Pressure 30.21 in
Visibility 10.0 miles
Clouds Clear
Dew Point 37 °F
Humidity 48%
Rainfall -999.00 in
Snow Depth Not available.
UV 0 out of 12
Pollen 9.00 out of 12
Air Quality Not available.
Flu Activity Not available.
METAR KMMH 221355Z AUTO 00000KT 10SM CLR 06/01 A3021 RMK AO1

More Conditions Fewer Conditions

10-Day Weather Forecast

Almanac

Astronomy

Aug. 22, 2014 Rise Set
Actual Time 6:20 AM PDT 7:42 PM PDT
Civil Twilight 5:53 AM PDT 8:09 PM PDT
Nautical Twilight 5:20 AM PDT 8:42 PM PDT
Astronomical Twilight 4:45 AM PDT 9:16 PM PDT
Moon 3:48 AM PDT 5:52 PM PDT
Length of Visible Light 14h 16m
Length of Day
13h 21m
Tomorrow will be 2m 14s shorter.
Waning Crescent, 8% of the Moon is Illuminated
Today
Waning Crescent
Aug 25
New
Sep 2
First Quarter
Sep 8
Full
Sep 15
Last Quarter

Today's Extremes

State Highs State Lows

Community

WunderPhotos

Upload Photos

1,746,171 photos uploaded!

Nearby

Snow Depth

Station Depth Elevation
Leavitt Lake 0 in 9400 ft
Leavitt Meadows 1 in 7200 ft
Summit Meadow 0 in 9122 ft
Ebbetts Pass 0 in 8700 ft
Blue Lakes 0 in 8000 ft

Earthquake Activity

City Distance Mag. Time & Date
King City, California 115 miles 2.7 10:26 PM PDT
2014-08-15
Minimum magnitude displayed is 2.5.

Coastal Water Temperatures

Place Temperature
No Stations Reporting

Nearby Weather Stations